sensor_id;sensor_type;location;lat;lon;timestamp;temperature;humidity
2935;DHT22;2462;51.456;7.248;2022-11-20T00:01:22;1.20;99.90
2935;DHT22;2462;51.456;7.248;2022-11-20T00:03:48;1.10;99.90
2935;DHT22;2462;51.456;7.248;2022-11-20T00:06:18;1.20;99.90
2935;DHT22;2462;51.456;7.248;2022-11-20T00:08:44;1.30;99.90
2935;DHT22;2462;51.456;7.248;2022-11-20T00:11:12;1.10;99.90
2935;DHT22;2462;51.456;7.248;2022-11-20T00:13:38;1.20;99.90
2935;DHT22;2462;51.456;7.248;2022-11-20T00:16:06;1.20;99.90
2935;DHT22;2462;51.456;7.248;2022-11-20T00:18:35;1.20;99.90
2935;DHT22;2462;51.456;7.248;2022-11-20T00:21:05;1.20;99.90
2935;DHT22;2462;51.456;7.248;2022-11-20T00:23:31;1.30;99.90
2935;DHT22;2462;51.456;7.248;2022-11-20T00:26:00;1.20;99.90
2935;DHT22;2462;51.456;7.248;2022-11-20T00:28:26;1.30;99.90
2935;DHT22;2462;51.456;7.248;2022-11-20T00:30:51;1.30;99.90
2935;DHT22;2462;51.456;7.248;2022-11-20T00:33:17;1.20;99.90
2935;DHT22;2462;51.456;7.248;2022-11-20T00:35:42;1.30;99.90
2935;DHT22;2462;51.456;7.248;2022-11-20T00:38:08;1.30;99.90
2935;DHT22;2462;51.456;7.248;2022-11-20T00:40:33;1.20;99.90
2935;DHT22;2462;51.456;7.248;2022-11-20T00:42:59;1.30;99.90
2935;DHT22;2462;51.456;7.248;2022-11-20T00:45:24;1.20;99.90
2935;DHT22;2462;51.456;7.248;2022-11-20T00:47:50;1.40;99.90
2935;DHT22;2462;51.456;7.248;2022-11-20T00:50:15;1.30;99.90
2935;DHT22;2462;51.456;7.248;2022-11-20T00:52:41;1.30;99.90
2935;DHT22;2462;51.456;7.248;2022-11-20T00:55:07;1.20;99.90
2935;DHT22;2462;51.456;7.248;2022-11-20T00:57:32;1.30;99.90
2935;DHT22;2462;51.456;7.248;2022-11-20T00:59:57;1.30;99.90
2935;DHT22;2462;51.456;7.248;2022-11-20T01:02:23;1.10;99.90
2935;DHT22;2462;51.456;7.248;2022-11-20T01:04:49;1.40;99.90
2935;DHT22;2462;51.456;7.248;2022-11-20T01:07:14;1.40;99.90
2935;DHT22;2462;51.456;7.248;2022-11-20T01:09:40;2.20;99.90
2935;DHT22;2462;51.456;7.248;2022-11-20T01:12:05;1.30;99.90
2935;DHT22;2462;51.456;7.248;2022-11-20T01:14:31;1.40;99.90
2935;DHT22;2462;51.456;7.248;2022-11-20T01:16:56;1.30;99.90
2935;DHT22;2462;51.456;7.248;2022-11-20T01:19:23;1.40;99.90
2935;DHT22;2462;51.456;7.248;2022-11-20T01:21:51;1.40;99.90
2935;DHT22;2462;51.456;7.248;2022-11-20T01:24:19;1.40;99.90
2935;DHT22;2462;51.456;7.248;2022-11-20T01:26:47;1.50;99.90
2935;DHT22;2462;51.456;7.248;2022-11-20T01:29:16;1.40;99.90
2935;DHT22;2462;51.456;7.248;2022-11-20T01:31:43;1.40;99.90
2935;DHT22;2462;51.456;7.248;2022-11-20T01:34:14;1.50;99.90
2935;DHT22;2462;51.456;7.248;2022-11-20T01:36:41;1.50;99.90
2935;DHT22;2462;51.456;7.248;2022-11-20T01:39:16;1.40;99.90
2935;DHT22;2462;51.456;7.248;2022-11-20T01:41:43;1.40;99.90
2935;DHT22;2462;51.456;7.248;2022-11-20T01:47:14;1.50;99.90
2935;DHT22;2462;51.456;7.248;2022-11-20T01:49:48;1.40;99.90
2935;DHT22;2462;51.456;7.248;2022-11-20T01:52:18;1.50;99.90
2935;DHT22;2462;51.456;7.248;2022-11-20T01:54:59;1.50;99.90
2935;DHT22;2462;51.456;7.248;2022-11-20T01:57:28;1.50;99.90
2935;DHT22;2462;51.456;7.248;2022-11-20T02:00:02;1.40;99.90
2935;DHT22;2462;51.456;7.248;2022-11-20T02:02:28;2.50;99.90
2935;DHT22;2462;51.456;7.248;2022-11-20T02:04:57;1.40;99.90
2935;DHT22;2462;51.456;7.248;2022-11-20T02:07:24;1.40;99.90
2935;DHT22;2462;51.456;7.248;2022-11-20T02:09:50;1.40;99.90
2935;DHT22;2462;51.456;7.248;2022-11-20T02:12:16;1.40;99.90
2935;DHT22;2462;51.456;7.248;2022-11-20T02:15:01;1.40;99.90
2935;DHT22;2462;51.456;7.248;2022-11-20T02:17:26;1.40;99.90
2935;DHT22;2462;51.456;7.248;2022-11-20T02:19:53;1.50;99.90
2935;DHT22;2462;51.456;7.248;2022-11-20T02:22:38;1.50;99.90
2935;DHT22;2462;51.456;7.248;2022-11-20T02:25:07;1.50;99.90
2935;DHT22;2462;51.456;7.248;2022-11-20T02:27:33;1.50;99.90
2935;DHT22;2462;51.456;7.248;2022-11-20T02:30:06;1.50;99.90
2935;DHT22;2462;51.456;7.248;2022-11-20T02:32:37;1.50;99.90
2935;DHT22;2462;51.456;7.248;2022-11-20T02:37:47;1.50;99.90
2935;DHT22;2462;51.456;7.248;2022-11-20T02:40:13;1.50;99.90
2935;DHT22;2462;51.456;7.248;2022-11-20T02:42:39;1.40;99.90
2935;DHT22;2462;51.456;7.248;2022-11-20T02:45:05;1.50;99.90
2935;DHT22;2462;51.456;7.248;2022-11-20T02:47:32;1.50;99.90
2935;DHT22;2462;51.456;7.248;2022-11-20T02:49:57;1.60;99.90
2935;DHT22;2462;51.456;7.248;2022-11-20T02:52:23;1.40;99.90
2935;DHT22;2462;51.456;7.248;2022-11-20T02:54:49;1.70;99.90
2935;DHT22;2462;51.456;7.248;2022-11-20T02:57:15;1.60;99.90
2935;DHT22;2462;51.456;7.248;2022-11-20T02:59:40;1.50;99.90
2935;DHT22;2462;51.456;7.248;2022-11-20T03:02:06;1.60;99.90
2935;DHT22;2462;51.456;7.248;2022-11-20T03:04:31;1.60;99.90
2935;DHT22;2462;51.456;7.248;2022-11-20T03:06:57;1.60;99.90
2935;DHT22;2462;51.456;7.248;2022-11-20T03:09:22;1.60;99.90
2935;DHT22;2462;51.456;7.248;2022-11-20T03:11:48;1.60;99.90
2935;DHT22;2462;51.456;7.248;2022-11-20T03:14:14;1.60;99.90
2935;DHT22;2462;51.456;7.248;2022-11-20T03:16:39;1.70;99.90
2935;DHT22;2462;51.456;7.248;2022-11-20T03:19:05;1.60;99.90
2935;DHT22;2462;51.456;7.248;2022-11-20T03:21:32;1.60;99.90
2935;DHT22;2462;51.456;7.248;2022-11-20T03:23:58;1.60;99.90
2935;DHT22;2462;51.456;7.248;2022-11-20T03:26:25;1.60;99.90
2935;DHT22;2462;51.456;7.248;2022-11-20T03:28:53;1.60;99.90
2935;DHT22;2462;51.456;7.248;2022-11-20T03:31:25;1.70;99.90
2935;DHT22;2462;51.456;7.248;2022-11-20T03:33:51;1.70;99.90
2935;DHT22;2462;51.456;7.248;2022-11-20T03:36:18;1.70;99.90
2935;DHT22;2462;51.456;7.248;2022-11-20T03:38:44;1.70;99.90
2935;DHT22;2462;51.456;7.248;2022-11-20T03:41:18;1.70;99.90
2935;DHT22;2462;51.456;7.248;2022-11-20T03:43:51;1.70;99.90
2935;DHT22;2462;51.456;7.248;2022-11-20T03:46:17;1.70;99.90
2935;DHT22;2462;51.456;7.248;2022-11-20T03:48:43;1.70;99.90
2935;DHT22;2462;51.456;7.248;2022-11-20T03:51:14;1.60;99.90
2935;DHT22;2462;51.456;7.248;2022-11-20T03:53:42;1.70;99.90
2935;DHT22;2462;51.456;7.248;2022-11-20T03:56:08;1.70;99.90
2935;DHT22;2462;51.456;7.248;2022-11-20T03:58:36;1.70;99.90
2935;DHT22;2462;51.456;7.248;2022-11-20T04:01:12;1.60;99.90
2935;DHT22;2462;51.456;7.248;2022-11-20T04:03:39;1.80;99.90
2935;DHT22;2462;51.456;7.248;2022-11-20T04:06:14;1.70;99.90
2935;DHT22;2462;51.456;7.248;2022-11-20T04:08:40;1.70;99.90
2935;DHT22;2462;51.456;7.248;2022-11-20T04:11:21;1.80;99.90
2935;DHT22;2462;51.456;7.248;2022-11-20T04:13:49;1.90;99.90
2935;DHT22;2462;51.456;7.248;2022-11-20T04:16:15;1.80;99.90
2935;DHT22;2462;51.456;7.248;2022-11-20T04:18:41;1.80;99.90
2935;DHT22;2462;51.456;7.248;2022-11-20T04:21:07;1.80;99.90
2935;DHT22;2462;51.456;7.248;2022-11-20T04:23:33;1.80;99.90
2935;DHT22;2462;51.456;7.248;2022-11-20T04:26:09;1.80;99.90
2935;DHT22;2462;51.456;7.248;2022-11-20T04:28:36;1.80;99.90
2935;DHT22;2462;51.456;7.248;2022-11-20T04:33:28;1.80;99.90
2935;DHT22;2462;51.456;7.248;2022-11-20T04:35:54;1.70;99.90
2935;DHT22;2462;51.456;7.248;2022-11-20T04:38:19;1.80;99.90
2935;DHT22;2462;51.456;7.248;2022-11-20T04:40:45;1.90;99.90
2935;DHT22;2462;51.456;7.248;2022-11-20T04:43:10;1.90;99.90
2935;DHT22;2462;51.456;7.248;2022-11-20T04:45:36;1.90;99.90
2935;DHT22;2462;51.456;7.248;2022-11-20T04:48:01;1.90;99.90
2935;DHT22;2462;51.456;7.248;2022-11-20T04:50:27;1.80;99.90
2935;DHT22;2462;51.456;7.248;2022-11-20T04:52:52;1.80;99.90
2935;DHT22;2462;51.456;7.248;2022-11-20T04:55:18;1.90;99.90
2935;DHT22;2462;51.456;7.248;2022-11-20T04:57:43;1.70;99.90
2935;DHT22;2462;51.456;7.248;2022-11-20T05:00:09;1.90;99.90
2935;DHT22;2462;51.456;7.248;2022-11-20T05:02:35;2.20;99.90
2935;DHT22;2462;51.456;7.248;2022-11-20T05:05:00;1.90;99.90
2935;DHT22;2462;51.456;7.248;2022-11-20T05:07:26;1.90;99.90
2935;DHT22;2462;51.456;7.248;2022-11-20T05:09:51;1.90;99.90
2935;DHT22;2462;51.456;7.248;2022-11-20T05:12:17;1.80;99.90
2935;DHT22;2462;51.456;7.248;2022-11-20T05:14:42;1.90;99.90
2935;DHT22;2462;51.456;7.248;2022-11-20T05:17:10;1.90;99.90
2935;DHT22;2462;51.456;7.248;2022-11-20T05:19:36;1.90;99.90
2935;DHT22;2462;51.456;7.248;2022-11-20T05:22:01;2.00;99.90
2935;DHT22;2462;51.456;7.248;2022-11-20T05:24:27;1.90;99.90
2935;DHT22;2462;51.456;7.248;2022-11-20T05:26:52;1.80;99.90
2935;DHT22;2462;51.456;7.248;2022-11-20T05:29:18;1.90;99.90
2935;DHT22;2462;51.456;7.248;2022-11-20T05:31:43;1.90;99.90
2935;DHT22;2462;51.456;7.248;2022-11-20T05:34:09;2.00;99.90
2935;DHT22;2462;51.456;7.248;2022-11-20T05:36:34;1.90;99.90
2935;DHT22;2462;51.456;7.248;2022-11-20T05:39:00;1.90;99.90
2935;DHT22;2462;51.456;7.248;2022-11-20T05:41:25;1.60;99.90
2935;DHT22;2462;51.456;7.248;2022-11-20T05:43:51;2.00;99.90
2935;DHT22;2462;51.456;7.248;2022-11-20T05:46:19;1.90;99.90
2935;DHT22;2462;51.456;7.248;2022-11-20T05:48:45;1.90;99.90
2935;DHT22;2462;51.456;7.248;2022-11-20T05:51:14;1.70;99.90
2935;DHT22;2462;51.456;7.248;2022-11-20T05:53:40;2.00;99.90
2935;DHT22;2462;51.456;7.248;2022-11-20T05:56:08;2.00;99.90
2935;DHT22;2462;51.456;7.248;2022-11-20T05:58:36;1.90;99.90
2935;DHT22;2462;51.456;7.248;2022-11-20T06:01:06;2.00;99.90
2935;DHT22;2462;51.456;7.248;2022-11-20T06:03:32;2.00;99.90
2935;DHT22;2462;51.456;7.248;2022-11-20T06:06:01;2.00;99.90
2935;DHT22;2462;51.456;7.248;2022-11-20T06:08:27;2.00;99.90
2935;DHT22;2462;51.456;7.248;2022-11-20T06:10:53;2.10;99.90
2935;DHT22;2462;51.456;7.248;2022-11-20T06:13:19;2.00;99.90
2935;DHT22;2462;51.456;7.248;2022-11-20T06:15:51;2.00;99.90
2935;DHT22;2462;51.456;7.248;2022-11-20T06:18:17;1.90;99.90
2935;DHT22;2462;51.456;7.248;2022-11-20T06:20:43;2.00;99.90
2935;DHT22;2462;51.456;7.248;2022-11-20T06:23:09;2.00;99.90
2935;DHT22;2462;51.456;7.248;2022-11-20T06:25:40;1.40;99.90
2935;DHT22;2462;51.456;7.248;2022-11-20T06:28:07;1.90;99.90
2935;DHT22;2462;51.456;7.248;2022-11-20T06:30:32;2.00;99.90
2935;DHT22;2462;51.456;7.248;2022-11-20T06:32:58;2.00;99.90
2935;DHT22;2462;51.456;7.248;2022-11-20T06:35:24;2.00;99.90
2935;DHT22;2462;51.456;7.248;2022-11-20T06:37:49;2.00;99.90
2935;DHT22;2462;51.456;7.248;2022-11-20T06:40:15;1.90;99.90
2935;DHT22;2462;51.456;7.248;2022-11-20T06:42:40;1.90;99.90
2935;DHT22;2462;51.456;7.248;2022-11-20T06:45:06;2.00;99.90
2935;DHT22;2462;51.456;7.248;2022-11-20T06:47:32;2.00;99.90
2935;DHT22;2462;51.456;7.248;2022-11-20T06:49:58;2.00;99.90
2935;DHT22;2462;51.456;7.248;2022-11-20T06:52:24;2.10;99.90
2935;DHT22;2462;51.456;7.248;2022-11-20T06:54:49;1.90;99.90
2935;DHT22;2462;51.456;7.248;2022-11-20T06:57:14;2.00;99.90
2935;DHT22;2462;51.456;7.248;2022-11-20T06:59:40;2.00;99.90
2935;DHT22;2462;51.456;7.248;2022-11-20T07:02:09;2.00;99.90
2935;DHT22;2462;51.456;7.248;2022-11-20T07:04:35;3.90;99.90
2935;DHT22;2462;51.456;7.248;2022-11-20T07:07:00;1.90;99.90
2935;DHT22;2462;51.456;7.248;2022-11-20T07:09:26;2.00;99.90
2935;DHT22;2462;51.456;7.248;2022-11-20T07:11:51;1.90;99.90
2935;DHT22;2462;51.456;7.248;2022-11-20T07:14:17;1.90;99.90
2935;DHT22;2462;51.456;7.248;2022-11-20T07:16:42;0.30;99.90
2935;DHT22;2462;51.456;7.248;2022-11-20T07:19:08;1.90;99.90
2935;DHT22;2462;51.456;7.248;2022-11-20T07:21:33;1.90;99.90
2935;DHT22;2462;51.456;7.248;2022-11-20T07:23:59;2.10;99.90
2935;DHT22;2462;51.456;7.248;2022-11-20T07:26:24;1.90;99.90
2935;DHT22;2462;51.456;7.248;2022-11-20T07:28:50;1.90;99.90
2935;DHT22;2462;51.456;7.248;2022-11-20T07:31:15;1.90;99.90
2935;DHT22;2462;51.456;7.248;2022-11-20T07:33:41;1.90;99.90
2935;DHT22;2462;51.456;7.248;2022-11-20T07:36:07;2.00;99.90
2935;DHT22;2462;51.456;7.248;2022-11-20T07:38:33;2.00;99.90
2935;DHT22;2462;51.456;7.248;2022-11-20T07:40:58;2.00;99.90
2935;DHT22;2462;51.456;7.248;2022-11-20T07:43:27;1.90;99.90
2935;DHT22;2462;51.456;7.248;2022-11-20T07:45:55;1.90;99.90
2935;DHT22;2462;51.456;7.248;2022-11-20T07:48:21;1.90;99.90
2935;DHT22;2462;51.456;7.248;2022-11-20T07:50:47;1.90;99.90
2935;DHT22;2462;51.456;7.248;2022-11-20T07:53:12;1.90;99.90
2935;DHT22;2462;51.456;7.248;2022-11-20T07:55:39;2.10;99.90
2935;DHT22;2462;51.456;7.248;2022-11-20T07:58:04;2.10;99.90
2935;DHT22;2462;51.456;7.248;2022-11-20T08:00:30;2.00;99.90
2935;DHT22;2462;51.456;7.248;2022-11-20T08:02:55;0.30;99.90
2935;DHT22;2462;51.456;7.248;2022-11-20T08:05:21;2.10;99.90
2935;DHT22;2462;51.456;7.248;2022-11-20T08:07:47;2.00;99.90
2935;DHT22;2462;51.456;7.248;2022-11-20T08:10:14;2.00;99.90
2935;DHT22;2462;51.456;7.248;2022-11-20T08:12:48;2.00;99.90
2935;DHT22;2462;51.456;7.248;2022-11-20T08:15:32;1.80;99.90
2935;DHT22;2462;51.456;7.248;2022-11-20T08:18:03;1.80;99.90
2935;DHT22;2462;51.456;7.248;2022-11-20T08:20:29;1.90;99.90
2935;DHT22;2462;51.456;7.248;2022-11-20T08:22:58;2.00;99.90
2935;DHT22;2462;51.456;7.248;2022-11-20T08:25:25;2.00;99.90
2935;DHT22;2462;51.456;7.248;2022-11-20T08:27:51;2.00;99.90
2935;DHT22;2462;51.456;7.248;2022-11-20T08:30:16;1.80;99.90
2935;DHT22;2462;51.456;7.248;2022-11-20T08:32:42;2.00;99.90
2935;DHT22;2462;51.456;7.248;2022-11-20T08:35:08;2.00;99.90
2935;DHT22;2462;51.456;7.248;2022-11-20T08:37:33;2.00;99.90
2935;DHT22;2462;51.456;7.248;2022-11-20T08:39:59;2.00;99.90
2935;DHT22;2462;51.456;7.248;2022-11-20T08:42:24;2.00;99.90
2935;DHT22;2462;51.456;7.248;2022-11-20T08:44:50;3.20;99.90
2935;DHT22;2462;51.456;7.248;2022-11-20T08:47:15;2.00;99.90
2935;DHT22;2462;51.456;7.248;2022-11-20T08:49:41;2.00;99.90
2935;DHT22;2462;51.456;7.248;2022-11-20T08:52:06;2.00;99.90
2935;DHT22;2462;51.456;7.248;2022-11-20T08:54:32;2.00;99.90
2935;DHT22;2462;51.456;7.248;2022-11-20T08:56:57;2.00;99.90
2935;DHT22;2462;51.456;7.248;2022-11-20T08:59:23;2.00;99.90
2935;DHT22;2462;51.456;7.248;2022-11-20T09:01:48;2.00;99.90
2935;DHT22;2462;51.456;7.248;2022-11-20T09:04:14;1.90;99.90
2935;DHT22;2462;51.456;7.248;2022-11-20T09:06:40;2.10;99.90
2935;DHT22;2462;51.456;7.248;2022-11-20T09:09:05;1.60;99.90
2935;DHT22;2462;51.456;7.248;2022-11-20T09:11:31;3.10;99.90
2935;DHT22;2462;51.456;7.248;2022-11-20T09:13:57;2.00;99.90
2935;DHT22;2462;51.456;7.248;2022-11-20T09:16:22;1.90;99.90
2935;DHT22;2462;51.456;7.248;2022-11-20T09:18:49;2.00;99.90
2935;DHT22;2462;51.456;7.248;2022-11-20T09:21:15;1.90;99.90
2935;DHT22;2462;51.456;7.248;2022-11-20T09:23:40;2.10;99.90
2935;DHT22;2462;51.456;7.248;2022-11-20T09:26:11;2.10;99.90
2935;DHT22;2462;51.456;7.248;2022-11-20T09:28:38;2.20;99.90
2935;DHT22;2462;51.456;7.248;2022-11-20T09:31:08;2.30;99.90
2935;DHT22;2462;51.456;7.248;2022-11-20T09:33:35;2.20;99.90
2935;DHT22;2462;51.456;7.248;2022-11-20T09:36:01;2.20;99.90
2935;DHT22;2462;51.456;7.248;2022-11-20T09:38:26;2.20;99.90
2935;DHT22;2462;51.456;7.248;2022-11-20T09:41:05;2.20;99.90
2935;DHT22;2462;51.456;7.248;2022-11-20T09:43:57;2.30;99.90
2935;DHT22;2462;51.456;7.248;2022-11-20T09:51:53;2.30;99.90
2935;DHT22;2462;51.456;7.248;2022-11-20T09:54:31;2.30;99.90
2935;DHT22;2462;51.456;7.248;2022-11-20T09:57:13;2.20;99.90
2935;DHT22;2462;51.456;7.248;2022-11-20T09:59:44;2.40;99.90
2935;DHT22;2462;51.456;7.248;2022-11-20T10:02:25;2.40;99.90
2935;DHT22;2462;51.456;7.248;2022-11-20T10:05:02;4.40;99.90
2935;DHT22;2462;51.456;7.248;2022-11-20T10:07:38;2.40;99.90
2935;DHT22;2462;51.456;7.248;2022-11-20T10:10:16;2.50;99.90
2935;DHT22;2462;51.456;7.248;2022-11-20T10:13:03;2.50;99.90
2935;DHT22;2462;51.456;7.248;2022-11-20T10:16:10;2.30;99.90
2935;DHT22;2462;51.456;7.248;2022-11-20T10:32:33;2.60;99.90
2935;DHT22;2462;51.456;7.248;2022-11-20T10:37:42;2.60;99.90
2935;DHT22;2462;51.456;7.248;2022-11-20T10:43:24;2.70;99.90
2935;DHT22;2462;51.456;7.248;2022-11-20T10:46:00;2.70;99.90
2935;DHT22;2462;51.456;7.248;2022-11-20T10:48:28;2.70;99.90
2935;DHT22;2462;51.456;7.248;2022-11-20T10:56:52;2.80;99.90
2935;DHT22;2462;51.456;7.248;2022-11-20T11:00:10;2.80;99.90
2935;DHT22;2462;51.456;7.248;2022-11-20T11:02:44;2.80;99.90
2935;DHT22;2462;51.456;7.248;2022-11-20T11:07:59;2.80;99.90
2935;DHT22;2462;51.456;7.248;2022-11-20T11:10:27;2.90;99.90
2935;DHT22;2462;51.456;7.248;2022-11-20T11:12:55;2.80;99.90
2935;DHT22;2462;51.456;7.248;2022-11-20T11:15:29;2.70;99.90
2935;DHT22;2462;51.456;7.248;2022-11-20T11:17:56;2.90;99.90
2935;DHT22;2462;51.456;7.248;2022-11-20T11:20:23;2.60;99.90
2935;DHT22;2462;51.456;7.248;2022-11-20T11:22:57;2.90;99.90
2935;DHT22;2462;51.456;7.248;2022-11-20T11:25:29;2.80;99.90
2935;DHT22;2462;51.456;7.248;2022-11-20T11:27:59;2.90;99.90
2935;DHT22;2462;51.456;7.248;2022-11-20T11:30:26;3.20;99.90
2935;DHT22;2462;51.456;7.248;2022-11-20T11:33:06;2.90;99.90
2935;DHT22;2462;51.456;7.248;2022-11-20T11:35:44;4.60;99.90
2935;DHT22;2462;51.456;7.248;2022-11-20T11:38:16;2.80;99.90
2935;DHT22;2462;51.456;7.248;2022-11-20T11:40:43;2.90;99.90
2935;DHT22;2462;51.456;7.248;2022-11-20T11:43:26;3.00;99.90
2935;DHT22;2462;51.456;7.248;2022-11-20T11:46:31;3.00;99.90
2935;DHT22;2462;51.456;7.248;2022-11-20T11:54:10;3.50;99.90
2935;DHT22;2462;51.456;7.248;2022-11-20T11:56:38;3.20;99.90
2935;DHT22;2462;51.456;7.248;2022-11-20T11:59:06;3.00;99.90
2935;DHT22;2462;51.456;7.248;2022-11-20T12:01:46;3.10;99.90
2935;DHT22;2462;51.456;7.248;2022-11-20T12:07:11;3.20;99.90
2935;DHT22;2462;51.456;7.248;2022-11-20T12:09:43;2.30;99.90
2935;DHT22;2462;51.456;7.248;2022-11-20T12:12:27;3.20;99.90
2935;DHT22;2462;51.456;7.248;2022-11-20T12:14:55;3.30;99.90
2935;DHT22;2462;51.456;7.248;2022-11-20T12:17:21;3.00;99.90
2935;DHT22;2462;51.456;7.248;2022-11-20T12:19:47;3.30;99.90
2935;DHT22;2462;51.456;7.248;2022-11-20T12:25:22;3.30;99.90
2935;DHT22;2462;51.456;7.248;2022-11-20T12:30:32;2.60;99.90
2935;DHT22;2462;51.456;7.248;2022-11-20T12:35:57;3.20;99.90
2935;DHT22;2462;51.456;7.248;2022-11-20T12:44:41;3.30;99.90
2935;DHT22;2462;51.456;7.248;2022-11-20T12:50:46;3.30;99.90
2935;DHT22;2462;51.456;7.248;2022-11-20T12:56:00;3.30;99.90
2935;DHT22;2462;51.456;7.248;2022-11-20T12:58:56;3.20;99.90
2935;DHT22;2462;51.456;7.248;2022-11-20T13:06:41;3.30;99.90
2935;DHT22;2462;51.456;7.248;2022-11-20T13:09:12;3.30;99.90
2935;DHT22;2462;51.456;7.248;2022-11-20T13:12:04;3.30;99.90
2935;DHT22;2462;51.456;7.248;2022-11-20T13:20:06;3.30;99.90
2935;DHT22;2462;51.456;7.248;2022-11-20T13:22:45;3.30;99.90
2935;DHT22;2462;51.456;7.248;2022-11-20T13:27:48;3.30;99.90
2935;DHT22;2462;51.456;7.248;2022-11-20T13:30:17;3.30;99.90
2935;DHT22;2462;51.456;7.248;2022-11-20T13:32:56;3.30;99.90
2935;DHT22;2462;51.456;7.248;2022-11-20T13:35:29;3.30;99.90
2935;DHT22;2462;51.456;7.248;2022-11-20T13:38:08;3.20;99.90
2935;DHT22;2462;51.456;7.248;2022-11-20T13:40:37;3.30;99.90
2935;DHT22;2462;51.456;7.248;2022-11-20T13:43:38;3.30;99.90
2935;DHT22;2462;51.456;7.248;2022-11-20T13:46:07;3.30;99.90
2935;DHT22;2462;51.456;7.248;2022-11-20T13:48:44;3.30;99.90
2935;DHT22;2462;51.456;7.248;2022-11-20T13:59:36;3.90;99.90
2935;DHT22;2462;51.456;7.248;2022-11-20T14:02:13;3.40;99.90
2935;DHT22;2462;51.456;7.248;2022-11-20T14:04:43;3.40;99.90
2935;DHT22;2462;51.456;7.248;2022-11-20T14:07:10;3.40;99.90
2935;DHT22;2462;51.456;7.248;2022-11-20T14:09:36;3.30;99.90
2935;DHT22;2462;51.456;7.248;2022-11-20T14:12:03;3.50;99.90
2935;DHT22;2462;51.456;7.248;2022-11-20T14:14:30;3.40;99.90
2935;DHT22;2462;51.456;7.248;2022-11-20T14:17:17;3.30;99.90
2935;DHT22;2462;51.456;7.248;2022-11-20T14:19:44;5.10;99.90
2935;DHT22;2462;51.456;7.248;2022-11-20T14:22:18;3.40;99.90
2935;DHT22;2462;51.456;7.248;2022-11-20T14:24:44;3.30;99.90
2935;DHT22;2462;51.456;7.248;2022-11-20T14:27:16;3.40;99.90
2935;DHT22;2462;51.456;7.248;2022-11-20T14:29:44;3.40;99.90
2935;DHT22;2462;51.456;7.248;2022-11-20T14:32:10;3.40;99.90
2935;DHT22;2462;51.456;7.248;2022-11-20T14:34:39;4.40;99.90
2935;DHT22;2462;51.456;7.248;2022-11-20T14:37:10;3.40;99.90
2935;DHT22;2462;51.456;7.248;2022-11-20T14:39:40;3.40;99.90
2935;DHT22;2462;51.456;7.248;2022-11-20T14:44:46;3.50;99.90
2935;DHT22;2462;51.456;7.248;2022-11-20T14:47:17;3.40;99.90
2935;DHT22;2462;51.456;7.248;2022-11-20T14:49:44;3.50;99.90
2935;DHT22;2462;51.456;7.248;2022-11-20T14:52:20;3.40;99.90
2935;DHT22;2462;51.456;7.248;2022-11-20T14:54:54;3.40;99.90
2935;DHT22;2462;51.456;7.248;2022-11-20T14:57:30;3.50;99.90
2935;DHT22;2462;51.456;7.248;2022-11-20T15:02:42;3.50;99.90
2935;DHT22;2462;51.456;7.248;2022-11-20T15:05:08;3.50;99.90
2935;DHT22;2462;51.456;7.248;2022-11-20T15:07:36;3.20;99.90
2935;DHT22;2462;51.456;7.248;2022-11-20T15:10:25;3.50;99.90
2935;DHT22;2462;51.456;7.248;2022-11-20T15:12:59;3.40;99.90
2935;DHT22;2462;51.456;7.248;2022-11-20T15:15:47;3.30;99.90
2935;DHT22;2462;51.456;7.248;2022-11-20T15:18:16;3.40;99.90
2935;DHT22;2462;51.456;7.248;2022-11-20T15:20:43;3.40;99.90
2935;DHT22;2462;51.456;7.248;2022-11-20T15:23:11;3.50;99.90
2935;DHT22;2462;51.456;7.248;2022-11-20T15:25:39;4.60;99.90
2935;DHT22;2462;51.456;7.248;2022-11-20T15:28:05;3.50;99.90
2935;DHT22;2462;51.456;7.248;2022-11-20T15:30:38;3.50;99.90
2935;DHT22;2462;51.456;7.248;2022-11-20T15:33:04;3.50;99.90
2935;DHT22;2462;51.456;7.248;2022-11-20T15:35:30;3.40;99.90
2935;DHT22;2462;51.456;7.248;2022-11-20T15:37:55;3.40;99.90
2935;DHT22;2462;51.456;7.248;2022-11-20T15:40:21;3.50;99.90
2935;DHT22;2462;51.456;7.248;2022-11-20T15:42:46;3.50;99.90
2935;DHT22;2462;51.456;7.248;2022-11-20T15:45:41;3.50;99.90
2935;DHT22;2462;51.456;7.248;2022-11-20T15:48:31;3.50;99.90
2935;DHT22;2462;51.456;7.248;2022-11-20T15:53:40;3.50;99.90
2935;DHT22;2462;51.456;7.248;2022-11-20T15:56:12;3.50;99.90
2935;DHT22;2462;51.456;7.248;2022-11-20T15:58:39;3.50;99.90
2935;DHT22;2462;51.456;7.248;2022-11-20T16:01:05;3.50;99.90
2935;DHT22;2462;51.456;7.248;2022-11-20T16:03:31;3.50;99.90
2935;DHT22;2462;51.456;7.248;2022-11-20T16:05:56;3.50;99.90
2935;DHT22;2462;51.456;7.248;2022-11-20T16:08:22;3.30;99.90
2935;DHT22;2462;51.456;7.248;2022-11-20T16:10:47;3.50;99.90
2935;DHT22;2462;51.456;7.248;2022-11-20T16:13:15;3.50;99.90
2935;DHT22;2462;51.456;7.248;2022-11-20T16:16:02;3.40;99.90
2935;DHT22;2462;51.456;7.248;2022-11-20T16:18:30;3.20;99.90
2935;DHT22;2462;51.456;7.248;2022-11-20T16:20:55;3.40;99.90
2935;DHT22;2462;51.456;7.248;2022-11-20T16:23:21;3.50;99.90
2935;DHT22;2462;51.456;7.248;2022-11-20T16:25:47;3.50;99.90
2935;DHT22;2462;51.456;7.248;2022-11-20T16:28:13;3.40;99.90
2935;DHT22;2462;51.456;7.248;2022-11-20T16:30:39;3.50;99.90
2935;DHT22;2462;51.456;7.248;2022-11-20T16:33:09;3.40;99.90
2935;DHT22;2462;51.456;7.248;2022-11-20T16:35:36;3.50;99.90
2935;DHT22;2462;51.456;7.248;2022-11-20T16:38:01;3.10;99.90
2935;DHT22;2462;51.456;7.248;2022-11-20T16:40:27;3.50;99.90
2935;DHT22;2462;51.456;7.248;2022-11-20T16:42:52;3.50;99.90
2935;DHT22;2462;51.456;7.248;2022-11-20T16:45:18;3.60;99.90
2935;DHT22;2462;51.456;7.248;2022-11-20T16:47:43;3.50;99.90
2935;DHT22;2462;51.456;7.248;2022-11-20T16:50:09;3.50;99.90
2935;DHT22;2462;51.456;7.248;2022-11-20T16:52:35;3.40;99.90
2935;DHT22;2462;51.456;7.248;2022-11-20T16:55:01;3.50;99.90
2935;DHT22;2462;51.456;7.248;2022-11-20T16:57:30;3.60;99.90
2935;DHT22;2462;51.456;7.248;2022-11-20T16:59:58;3.20;99.90
2935;DHT22;2462;51.456;7.248;2022-11-20T17:02:24;3.50;99.90
2935;DHT22;2462;51.456;7.248;2022-11-20T17:04:50;3.20;99.90
2935;DHT22;2462;51.456;7.248;2022-11-20T17:07:16;3.60;99.90
2935;DHT22;2462;51.456;7.248;2022-11-20T17:09:42;3.60;99.90
2935;DHT22;2462;51.456;7.248;2022-11-20T17:12:07;3.40;99.90
2935;DHT22;2462;51.456;7.248;2022-11-20T17:14:34;3.50;99.90
2935;DHT22;2462;51.456;7.248;2022-11-20T17:16:59;3.60;99.90
2935;DHT22;2462;51.456;7.248;2022-11-20T17:19:25;3.60;99.90
2935;DHT22;2462;51.456;7.248;2022-11-20T17:21:50;3.60;99.90
2935;DHT22;2462;51.456;7.248;2022-11-20T17:24:16;3.60;99.90
2935;DHT22;2462;51.456;7.248;2022-11-20T17:26:43;3.60;99.90
2935;DHT22;2462;51.456;7.248;2022-11-20T17:29:14;3.70;99.90
2935;DHT22;2462;51.456;7.248;2022-11-20T17:31:41;3.70;99.90
2935;DHT22;2462;51.456;7.248;2022-11-20T17:34:09;3.60;99.90
2935;DHT22;2462;51.456;7.248;2022-11-20T17:36:36;3.70;99.90
2935;DHT22;2462;51.456;7.248;2022-11-20T17:39:04;3.70;99.90
2935;DHT22;2462;51.456;7.248;2022-11-20T17:41:29;4.00;99.90
2935;DHT22;2462;51.456;7.248;2022-11-20T17:43:57;3.70;99.90
2935;DHT22;2462;51.456;7.248;2022-11-20T17:46:25;3.90;99.90
2935;DHT22;2462;51.456;7.248;2022-11-20T17:48:51;3.80;99.90
2935;DHT22;2462;51.456;7.248;2022-11-20T17:51:19;3.80;99.90
2935;DHT22;2462;51.456;7.248;2022-11-20T17:53:48;3.80;99.90
2935;DHT22;2462;51.456;7.248;2022-11-20T17:56:14;3.80;99.90
2935;DHT22;2462;51.456;7.248;2022-11-20T17:58:58;3.80;99.90
2935;DHT22;2462;51.456;7.248;2022-11-20T18:01:24;3.90;99.90
2935;DHT22;2462;51.456;7.248;2022-11-20T18:03:50;3.90;99.90
2935;DHT22;2462;51.456;7.248;2022-11-20T18:06:18;3.60;99.90
2935;DHT22;2462;51.456;7.248;2022-11-20T18:08:44;3.80;99.90